sensor_id;sensor_type;location;lat;lon;timestamp;temperature;humidity
75262;DHT22;63859;51.064;4.580;2023-06-26T00:00:32;23.80;93.60
75262;DHT22;63859;51.064;4.580;2023-06-26T00:02:58;23.70;93.50
75262;DHT22;63859;51.064;4.580;2023-06-26T00:05:23;23.60;93.40
75262;DHT22;63859;51.064;4.580;2023-06-26T00:07:49;23.50;93.40
75262;DHT22;63859;51.064;4.580;2023-06-26T00:10:15;23.50;93.40
75262;DHT22;63859;51.064;4.580;2023-06-26T00:12:40;23.40;93.40
75262;DHT22;63859;51.064;4.580;2023-06-26T00:15:06;23.40;93.70
75262;DHT22;63859;51.064;4.580;2023-06-26T00:17:33;23.30;93.70
75262;DHT22;63859;51.064;4.580;2023-06-26T00:20:02;23.20;93.90
75262;DHT22;63859;51.064;4.580;2023-06-26T00:22:28;23.20;94.00
75262;DHT22;63859;51.064;4.580;2023-06-26T00:24:53;23.20;94.60
75262;DHT22;63859;51.064;4.580;2023-06-26T00:27:20;23.10;94.90
75262;DHT22;63859;51.064;4.580;2023-06-26T00:32:14;23.00;95.60
75262;DHT22;63859;51.064;4.580;2023-06-26T00:34:40;22.90;95.60
75262;DHT22;63859;51.064;4.580;2023-06-26T00:37:05;22.80;95.80
75262;DHT22;63859;51.064;4.580;2023-06-26T00:39:31;22.70;95.90
75262;DHT22;63859;51.064;4.580;2023-06-26T00:41:57;22.70;96.10
75262;DHT22;63859;51.064;4.580;2023-06-26T00:44:22;22.60;95.80
75262;DHT22;63859;51.064;4.580;2023-06-26T00:46:48;22.60;95.70
75262;DHT22;63859;51.064;4.580;2023-06-26T00:49:14;22.50;95.70
75262;DHT22;63859;51.064;4.580;2023-06-26T00:51:40;22.50;96.00
75262;DHT22;63859;51.064;4.580;2023-06-26T00:54:05;22.50;96.20
75262;DHT22;63859;51.064;4.580;2023-06-26T00:56:31;22.50;96.40
75262;DHT22;63859;51.064;4.580;2023-06-26T00:58:58;22.40;96.70
75262;DHT22;63859;51.064;4.580;2023-06-26T01:01:23;22.40;96.90
75262;DHT22;63859;51.064;4.580;2023-06-26T01:03:51;22.30;97.00
75262;DHT22;63859;51.064;4.580;2023-06-26T01:06:18;22.30;97.20
75262;DHT22;63859;51.064;4.580;2023-06-26T01:08:45;22.20;96.70
75262;DHT22;63859;51.064;4.580;2023-06-26T01:11:13;22.10;96.50
75262;DHT22;63859;51.064;4.580;2023-06-26T01:13:40;22.00;96.40
75262;DHT22;63859;51.064;4.580;2023-06-26T01:16:06;21.90;96.40
75262;DHT22;63859;51.064;4.580;2023-06-26T01:18:32;21.80;96.60
75262;DHT22;63859;51.064;4.580;2023-06-26T01:21:00;21.80;96.70
75262;DHT22;63859;51.064;4.580;2023-06-26T01:23:31;21.80;96.80
75262;DHT22;63859;51.064;4.580;2023-06-26T01:26:20;21.70;96.90
75262;DHT22;63859;51.064;4.580;2023-06-26T01:28:46;21.70;97.00
75262;DHT22;63859;51.064;4.580;2023-06-26T01:31:13;21.60;97.10
75262;DHT22;63859;51.064;4.580;2023-06-26T01:33:40;21.60;97.30
75262;DHT22;63859;51.064;4.580;2023-06-26T01:36:07;21.50;97.40
75262;DHT22;63859;51.064;4.580;2023-06-26T01:38:33;21.50;97.60
75262;DHT22;63859;51.064;4.580;2023-06-26T01:41:00;21.50;97.70
75262;DHT22;63859;51.064;4.580;2023-06-26T01:46:01;21.50;98.00
75262;DHT22;63859;51.064;4.580;2023-06-26T01:48:34;21.50;98.30
75262;DHT22;63859;51.064;4.580;2023-06-26T01:51:01;21.40;98.60
75262;DHT22;63859;51.064;4.580;2023-06-26T01:53:34;21.30;99.00
75262;DHT22;63859;51.064;4.580;2023-06-26T01:56:14;21.30;99.40
75262;DHT22;63859;51.064;4.580;2023-06-26T01:58:43;21.20;99.90
75262;DHT22;63859;51.064;4.580;2023-06-26T02:01:10;21.10;99.90
75262;DHT22;63859;51.064;4.580;2023-06-26T02:03:36;21.10;99.90
75262;DHT22;63859;51.064;4.580;2023-06-26T02:06:02;21.10;99.90
75262;DHT22;63859;51.064;4.580;2023-06-26T02:08:27;21.00;99.90
75262;DHT22;63859;51.064;4.580;2023-06-26T02:10:53;21.00;99.90
75262;DHT22;63859;51.064;4.580;2023-06-26T02:13:18;21.00;99.90
75262;DHT22;63859;51.064;4.580;2023-06-26T02:15:44;21.00;99.90
75262;DHT22;63859;51.064;4.580;2023-06-26T02:18:10;20.90;99.90
75262;DHT22;63859;51.064;4.580;2023-06-26T02:20:36;20.90;99.90
75262;DHT22;63859;51.064;4.580;2023-06-26T02:23:01;20.80;99.90
75262;DHT22;63859;51.064;4.580;2023-06-26T02:25:27;20.80;99.90
75262;DHT22;63859;51.064;4.580;2023-06-26T02:27:52;20.70;99.90
75262;DHT22;63859;51.064;4.580;2023-06-26T02:30:19;20.70;99.90
75262;DHT22;63859;51.064;4.580;2023-06-26T02:32:44;20.60;99.90
75262;DHT22;63859;51.064;4.580;2023-06-26T02:35:10;20.60;99.90
75262;DHT22;63859;51.064;4.580;2023-06-26T02:37:36;20.50;99.90
75262;DHT22;63859;51.064;4.580;2023-06-26T02:40:02;20.40;99.90
75262;DHT22;63859;51.064;4.580;2023-06-26T02:42:31;20.40;99.90
75262;DHT22;63859;51.064;4.580;2023-06-26T02:44:57;20.40;99.90
75262;DHT22;63859;51.064;4.580;2023-06-26T02:47:22;20.30;99.90
75262;DHT22;63859;51.064;4.580;2023-06-26T02:49:48;20.30;99.90
75262;DHT22;63859;51.064;4.580;2023-06-26T02:52:13;20.30;99.90
75262;DHT22;63859;51.064;4.580;2023-06-26T02:54:39;20.30;99.90
75262;DHT22;63859;51.064;4.580;2023-06-26T02:57:05;20.30;99.90
75262;DHT22;63859;51.064;4.580;2023-06-26T02:59:30;20.30;99.90
75262;DHT22;63859;51.064;4.580;2023-06-26T03:01:56;20.20;99.90
75262;DHT22;63859;51.064;4.580;2023-06-26T03:04:21;20.20;99.90
75262;DHT22;63859;51.064;4.580;2023-06-26T03:06:47;20.10;99.90
75262;DHT22;63859;51.064;4.580;2023-06-26T03:09:13;20.10;99.90
75262;DHT22;63859;51.064;4.580;2023-06-26T03:11:38;20.00;99.90
75262;DHT22;63859;51.064;4.580;2023-06-26T03:14:04;20.00;99.90
75262;DHT22;63859;51.064;4.580;2023-06-26T03:16:30;19.90;99.90
75262;DHT22;63859;51.064;4.580;2023-06-26T03:18:55;19.90;99.90
75262;DHT22;63859;51.064;4.580;2023-06-26T03:21:21;19.80;99.90
75262;DHT22;63859;51.064;4.580;2023-06-26T03:23:47;19.80;99.90
75262;DHT22;63859;51.064;4.580;2023-06-26T03:26:12;19.80;99.90
75262;DHT22;63859;51.064;4.580;2023-06-26T03:28:40;19.70;99.90
75262;DHT22;63859;51.064;4.580;2023-06-26T03:31:06;19.70;99.90
75262;DHT22;63859;51.064;4.580;2023-06-26T03:33:31;19.70;99.90
75262;DHT22;63859;51.064;4.580;2023-06-26T03:35:57;19.60;99.90
75262;DHT22;63859;51.064;4.580;2023-06-26T03:38:24;19.60;99.90
75262;DHT22;63859;51.064;4.580;2023-06-26T03:40:51;19.50;99.90
75262;DHT22;63859;51.064;4.580;2023-06-26T03:43:17;19.50;99.90
75262;DHT22;63859;51.064;4.580;2023-06-26T03:45:43;19.50;99.90
75262;DHT22;63859;51.064;4.580;2023-06-26T03:48:08;19.50;99.90
75262;DHT22;63859;51.064;4.580;2023-06-26T03:50:34;19.40;99.90
75262;DHT22;63859;51.064;4.580;2023-06-26T03:53:00;19.40;99.90
75262;DHT22;63859;51.064;4.580;2023-06-26T03:55:25;19.40;99.90
75262;DHT22;63859;51.064;4.580;2023-06-26T03:57:51;19.30;99.90
75262;DHT22;63859;51.064;4.580;2023-06-26T04:00:17;19.30;99.90
75262;DHT22;63859;51.064;4.580;2023-06-26T04:02:43;19.30;99.90
75262;DHT22;63859;51.064;4.580;2023-06-26T04:05:08;19.30;99.90
75262;DHT22;63859;51.064;4.580;2023-06-26T04:07:34;19.30;99.90
75262;DHT22;63859;51.064;4.580;2023-06-26T04:10:01;19.20;99.90
75262;DHT22;63859;51.064;4.580;2023-06-26T04:12:27;19.10;99.90
75262;DHT22;63859;51.064;4.580;2023-06-26T04:14:52;19.20;99.90
75262;DHT22;63859;51.064;4.580;2023-06-26T04:17:18;19.10;99.90
75262;DHT22;63859;51.064;4.580;2023-06-26T04:19:44;19.10;99.90
75262;DHT22;63859;51.064;4.580;2023-06-26T04:22:09;19.10;99.90
75262;DHT22;63859;51.064;4.580;2023-06-26T04:24:35;19.10;99.90
75262;DHT22;63859;51.064;4.580;2023-06-26T04:27:01;19.10;99.90
75262;DHT22;63859;51.064;4.580;2023-06-26T04:29:26;19.10;99.90
75262;DHT22;63859;51.064;4.580;2023-06-26T04:31:53;19.10;99.90
75262;DHT22;63859;51.064;4.580;2023-06-26T04:34:26;19.10;99.90
75262;DHT22;63859;51.064;4.580;2023-06-26T04:36:52;19.20;99.90
75262;DHT22;63859;51.064;4.580;2023-06-26T04:39:18;19.10;99.90
75262;DHT22;63859;51.064;4.580;2023-06-26T04:41:44;19.10;99.90
75262;DHT22;63859;51.064;4.580;2023-06-26T04:44:10;19.10;99.90
75262;DHT22;63859;51.064;4.580;2023-06-26T04:46:37;19.10;99.90
75262;DHT22;63859;51.064;4.580;2023-06-26T04:49:07;19.10;99.90
75262;DHT22;63859;51.064;4.580;2023-06-26T04:51:32;19.00;99.90
75262;DHT22;63859;51.064;4.580;2023-06-26T04:53:58;19.00;99.90
75262;DHT22;63859;51.064;4.580;2023-06-26T04:56:24;19.00;99.90
75262;DHT22;63859;51.064;4.580;2023-06-26T04:58:49;19.00;99.90
75262;DHT22;63859;51.064;4.580;2023-06-26T05:01:15;18.90;99.90
75262;DHT22;63859;51.064;4.580;2023-06-26T05:03:40;18.90;99.90
75262;DHT22;63859;51.064;4.580;2023-06-26T05:06:06;19.00;99.90
75262;DHT22;63859;51.064;4.580;2023-06-26T05:08:32;19.00;99.90
75262;DHT22;63859;51.064;4.580;2023-06-26T05:10:57;19.00;99.90
75262;DHT22;63859;51.064;4.580;2023-06-26T05:13:24;18.90;99.90
75262;DHT22;63859;51.064;4.580;2023-06-26T05:15:51;18.90;99.90
75262;DHT22;63859;51.064;4.580;2023-06-26T05:18:18;18.90;99.90
75262;DHT22;63859;51.064;4.580;2023-06-26T05:20:43;18.90;99.90
75262;DHT22;63859;51.064;4.580;2023-06-26T05:23:11;18.90;99.90
75262;DHT22;63859;51.064;4.580;2023-06-26T05:25:37;18.80;99.90
75262;DHT22;63859;51.064;4.580;2023-06-26T05:28:04;18.90;99.90
75262;DHT22;63859;51.064;4.580;2023-06-26T05:30:36;19.00;99.90
75262;DHT22;63859;51.064;4.580;2023-06-26T05:33:03;19.00;99.90
75262;DHT22;63859;51.064;4.580;2023-06-26T05:35:29;18.90;99.90
75262;DHT22;63859;51.064;4.580;2023-06-26T05:37:56;18.90;99.90
75262;DHT22;63859;51.064;4.580;2023-06-26T05:40:22;18.90;99.90
75262;DHT22;63859;51.064;4.580;2023-06-26T05:42:48;18.90;99.90
75262;DHT22;63859;51.064;4.580;2023-06-26T05:45:15;18.80;99.90
75262;DHT22;63859;51.064;4.580;2023-06-26T05:47:42;18.80;99.90
75262;DHT22;63859;51.064;4.580;2023-06-26T05:50:09;18.80;99.90
75262;DHT22;63859;51.064;4.580;2023-06-26T05:52:35;18.80;99.90
75262;DHT22;63859;51.064;4.580;2023-06-26T05:55:02;18.80;99.90
75262;DHT22;63859;51.064;4.580;2023-06-26T05:57:29;18.80;99.90
75262;DHT22;63859;51.064;4.580;2023-06-26T05:59:55;18.80;99.90
75262;DHT22;63859;51.064;4.580;2023-06-26T06:02:21;18.90;99.90
75262;DHT22;63859;51.064;4.580;2023-06-26T06:04:47;18.90;99.90
75262;DHT22;63859;51.064;4.580;2023-06-26T06:07:13;18.90;99.90
75262;DHT22;63859;51.064;4.580;2023-06-26T06:09:38;18.90;99.90
75262;DHT22;63859;51.064;4.580;2023-06-26T06:12:08;18.80;99.90
75262;DHT22;63859;51.064;4.580;2023-06-26T06:14:34;18.90;99.90
75262;DHT22;63859;51.064;4.580;2023-06-26T06:17:00;19.00;99.90
75262;DHT22;63859;51.064;4.580;2023-06-26T06:19:26;19.00;99.90
75262;DHT22;63859;51.064;4.580;2023-06-26T06:21:52;19.00;99.90
75262;DHT22;63859;51.064;4.580;2023-06-26T06:24:17;19.00;99.90
75262;DHT22;63859;51.064;4.580;2023-06-26T06:26:43;19.10;99.90
75262;DHT22;63859;51.064;4.580;2023-06-26T06:29:09;19.10;99.90
75262;DHT22;63859;51.064;4.580;2023-06-26T06:31:34;19.10;99.90
75262;DHT22;63859;51.064;4.580;2023-06-26T06:34:00;19.10;99.90
75262;DHT22;63859;51.064;4.580;2023-06-26T06:36:25;19.10;99.90
75262;DHT22;63859;51.064;4.580;2023-06-26T06:38:51;19.10;99.90
75262;DHT22;63859;51.064;4.580;2023-06-26T06:41:17;19.20;99.90
75262;DHT22;63859;51.064;4.580;2023-06-26T06:43:43;19.20;99.90
75262;DHT22;63859;51.064;4.580;2023-06-26T06:46:09;19.20;99.90
75262;DHT22;63859;51.064;4.580;2023-06-26T06:48:34;19.30;99.90
75262;DHT22;63859;51.064;4.580;2023-06-26T06:51:00;19.40;99.90
75262;DHT22;63859;51.064;4.580;2023-06-26T06:53:26;19.40;99.90
75262;DHT22;63859;51.064;4.580;2023-06-26T06:55:51;19.40;99.90
75262;DHT22;63859;51.064;4.580;2023-06-26T06:58:17;19.40;99.90
75262;DHT22;63859;51.064;4.580;2023-06-26T07:00:44;19.40;99.90
75262;DHT22;63859;51.064;4.580;2023-06-26T07:03:10;19.50;99.90
75262;DHT22;63859;51.064;4.580;2023-06-26T07:05:36;19.50;99.90
75262;DHT22;63859;51.064;4.580;2023-06-26T07:08:02;19.60;99.90
75262;DHT22;63859;51.064;4.580;2023-06-26T07:10:28;19.60;99.90
75262;DHT22;63859;51.064;4.580;2023-06-26T07:12:54;19.70;99.90
75262;DHT22;63859;51.064;4.580;2023-06-26T07:15:19;19.70;99.90
75262;DHT22;63859;51.064;4.580;2023-06-26T07:17:45;19.70;99.90
75262;DHT22;63859;51.064;4.580;2023-06-26T07:20:11;19.70;99.90
75262;DHT22;63859;51.064;4.580;2023-06-26T07:22:41;19.80;99.90
75262;DHT22;63859;51.064;4.580;2023-06-26T07:25:07;19.80;99.90
75262;DHT22;63859;51.064;4.580;2023-06-26T07:27:36;19.80;99.90
75262;DHT22;63859;51.064;4.580;2023-06-26T07:30:02;19.80;99.90
75262;DHT22;63859;51.064;4.580;2023-06-26T07:32:28;19.90;99.90
75262;DHT22;63859;51.064;4.580;2023-06-26T07:34:53;20.00;99.90
75262;DHT22;63859;51.064;4.580;2023-06-26T07:37:19;20.20;99.90
75262;DHT22;63859;51.064;4.580;2023-06-26T07:39:44;20.20;99.90
75262;DHT22;63859;51.064;4.580;2023-06-26T07:42:10;20.30;99.90
75262;DHT22;63859;51.064;4.580;2023-06-26T07:44:36;20.30;99.90
75262;DHT22;63859;51.064;4.580;2023-06-26T07:47:02;20.40;99.90
75262;DHT22;63859;51.064;4.580;2023-06-26T07:49:27;20.30;99.90
75262;DHT22;63859;51.064;4.580;2023-06-26T07:51:53;20.30;99.90
75262;DHT22;63859;51.064;4.580;2023-06-26T07:54:19;20.30;99.90
75262;DHT22;63859;51.064;4.580;2023-06-26T07:56:57;20.30;99.90
75262;DHT22;63859;51.064;4.580;2023-06-26T07:59:24;20.40;99.90
75262;DHT22;63859;51.064;4.580;2023-06-26T08:01:51;20.40;99.90
75262;DHT22;63859;51.064;4.580;2023-06-26T08:06:51;20.60;99.90
75262;DHT22;63859;51.064;4.580;2023-06-26T08:11:56;20.80;99.90
75262;DHT22;63859;51.064;4.580;2023-06-26T08:14:22;20.90;99.90
75262;DHT22;63859;51.064;4.580;2023-06-26T08:16:49;20.90;99.90
75262;DHT22;63859;51.064;4.580;2023-06-26T08:19:16;21.10;99.90
75262;DHT22;63859;51.064;4.580;2023-06-26T08:21:42;21.20;99.90
75262;DHT22;63859;51.064;4.580;2023-06-26T08:24:08;21.20;99.90
75262;DHT22;63859;51.064;4.580;2023-06-26T08:26:35;21.20;99.90
75262;DHT22;63859;51.064;4.580;2023-06-26T08:29:01;21.30;99.90
75262;DHT22;63859;51.064;4.580;2023-06-26T08:31:35;21.40;99.90
75262;DHT22;63859;51.064;4.580;2023-06-26T08:34:02;21.30;99.90
75262;DHT22;63859;51.064;4.580;2023-06-26T08:36:28;21.30;99.90
75262;DHT22;63859;51.064;4.580;2023-06-26T08:38:54;21.40;99.90
75262;DHT22;63859;51.064;4.580;2023-06-26T08:41:19;21.50;99.90
75262;DHT22;63859;51.064;4.580;2023-06-26T08:43:45;21.40;99.90
75262;DHT22;63859;51.064;4.580;2023-06-26T08:46:11;21.20;99.90
75262;DHT22;63859;51.064;4.580;2023-06-26T08:48:37;21.20;99.90
75262;DHT22;63859;51.064;4.580;2023-06-26T08:51:09;21.20;99.90
75262;DHT22;63859;51.064;4.580;2023-06-26T08:53:48;21.20;99.90
75262;DHT22;63859;51.064;4.580;2023-06-26T08:56:17;21.30;99.90
75262;DHT22;63859;51.064;4.580;2023-06-26T08:58:43;21.50;99.90
75262;DHT22;63859;51.064;4.580;2023-06-26T09:01:09;21.60;99.90
75262;DHT22;63859;51.064;4.580;2023-06-26T09:03:36;21.60;99.90
75262;DHT22;63859;51.064;4.580;2023-06-26T09:06:02;21.60;99.90
75262;DHT22;63859;51.064;4.580;2023-06-26T09:08:28;21.50;99.90
75262;DHT22;63859;51.064;4.580;2023-06-26T09:10:53;21.60;99.90
75262;DHT22;63859;51.064;4.580;2023-06-26T09:13:19;21.80;99.90
75262;DHT22;63859;51.064;4.580;2023-06-26T09:15:45;21.80;99.90
75262;DHT22;63859;51.064;4.580;2023-06-26T09:18:12;21.70;99.90
75262;DHT22;63859;51.064;4.580;2023-06-26T09:20:38;21.80;99.90
75262;DHT22;63859;51.064;4.580;2023-06-26T09:23:04;21.70;99.90
75262;DHT22;63859;51.064;4.580;2023-06-26T09:25:30;21.60;99.90
75262;DHT22;63859;51.064;4.580;2023-06-26T09:27:56;21.60;99.90
75262;DHT22;63859;51.064;4.580;2023-06-26T09:30:22;21.70;99.90
75262;DHT22;63859;51.064;4.580;2023-06-26T09:32:48;21.90;99.90
75262;DHT22;63859;51.064;4.580;2023-06-26T09:35:16;22.00;99.90
75262;DHT22;63859;51.064;4.580;2023-06-26T09:37:42;21.90;99.90
75262;DHT22;63859;51.064;4.580;2023-06-26T09:40:08;21.90;99.90
75262;DHT22;63859;51.064;4.580;2023-06-26T09:42:34;22.10;99.90
75262;DHT22;63859;51.064;4.580;2023-06-26T09:45:00;22.10;99.90
75262;DHT22;63859;51.064;4.580;2023-06-26T09:47:30;22.30;99.90
75262;DHT22;63859;51.064;4.580;2023-06-26T09:49:56;22.40;99.90
75262;DHT22;63859;51.064;4.580;2023-06-26T09:52:21;22.60;99.90
75262;DHT22;63859;51.064;4.580;2023-06-26T09:54:50;22.60;99.90
75262;DHT22;63859;51.064;4.580;2023-06-26T09:57:17;22.60;99.90
75262;DHT22;63859;51.064;4.580;2023-06-26T09:59:44;22.70;99.90
75262;DHT22;63859;51.064;4.580;2023-06-26T10:02:11;22.70;99.90
75262;DHT22;63859;51.064;4.580;2023-06-26T10:04:37;22.70;99.90
75262;DHT22;63859;51.064;4.580;2023-06-26T10:07:11;22.80;99.90
75262;DHT22;63859;51.064;4.580;2023-06-26T10:09:41;22.90;99.90
75262;DHT22;63859;51.064;4.580;2023-06-26T10:12:18;23.00;99.90
75262;DHT22;63859;51.064;4.580;2023-06-26T10:14:46;23.00;99.90
75262;DHT22;63859;51.064;4.580;2023-06-26T10:17:16;22.90;99.90
75262;DHT22;63859;51.064;4.580;2023-06-26T10:19:45;22.90;99.90
75262;DHT22;63859;51.064;4.580;2023-06-26T10:22:16;22.90;99.90
75262;DHT22;63859;51.064;4.580;2023-06-26T10:24:44;23.00;99.90
75262;DHT22;63859;51.064;4.580;2023-06-26T10:27:18;23.00;99.90
75262;DHT22;63859;51.064;4.580;2023-06-26T10:29:54;23.00;99.90
75262;DHT22;63859;51.064;4.580;2023-06-26T10:32:21;23.00;99.90
75262;DHT22;63859;51.064;4.580;2023-06-26T10:34:49;23.30;99.90
75262;DHT22;63859;51.064;4.580;2023-06-26T10:37:15;23.30;99.90
75262;DHT22;63859;51.064;4.580;2023-06-26T10:39:47;23.20;99.90
75262;DHT22;63859;51.064;4.580;2023-06-26T10:42:15;22.90;99.30
75262;DHT22;63859;51.064;4.580;2023-06-26T10:44:45;22.90;99.30
75262;DHT22;63859;51.064;4.580;2023-06-26T10:47:31;23.10;99.00
75262;DHT22;63859;51.064;4.580;2023-06-26T10:50:17;23.50;98.90
75262;DHT22;63859;51.064;4.580;2023-06-26T10:52:44;23.30;99.00
75262;DHT22;63859;51.064;4.580;2023-06-26T10:55:10;23.10;99.00
75262;DHT22;63859;51.064;4.580;2023-06-26T10:57:36;22.70;98.20
75262;DHT22;63859;51.064;4.580;2023-06-26T11:00:13;22.60;97.70
75262;DHT22;63859;51.064;4.580;2023-06-26T11:02:52;22.80;98.00
75262;DHT22;63859;51.064;4.580;2023-06-26T11:05:26;23.00;98.50
75262;DHT22;63859;51.064;4.580;2023-06-26T11:08:09;23.00;97.30
75262;DHT22;63859;51.064;4.580;2023-06-26T11:10:53;23.00;96.80
75262;DHT22;63859;51.064;4.580;2023-06-26T11:13:20;23.00;96.90
75262;DHT22;63859;51.064;4.580;2023-06-26T11:15:47;23.20;97.40
75262;DHT22;63859;51.064;4.580;2023-06-26T11:18:13;23.40;97.60
75262;DHT22;63859;51.064;4.580;2023-06-26T11:20:40;23.50;97.40
75262;DHT22;63859;51.064;4.580;2023-06-26T11:23:07;23.50;97.80
75262;DHT22;63859;51.064;4.580;2023-06-26T11:25:35;23.80;97.50
75262;DHT22;63859;51.064;4.580;2023-06-26T11:28:02;23.80;95.30
75262;DHT22;63859;51.064;4.580;2023-06-26T11:30:28;23.80;94.90
75262;DHT22;63859;51.064;4.580;2023-06-26T11:33:05;23.60;95.30
75262;DHT22;63859;51.064;4.580;2023-06-26T11:35:32;23.30;94.90
75262;DHT22;63859;51.064;4.580;2023-06-26T11:37:59;23.20;95.50
75262;DHT22;63859;51.064;4.580;2023-06-26T11:40:28;23.40;96.00
75262;DHT22;63859;51.064;4.580;2023-06-26T11:42:58;23.30;94.80
75262;DHT22;63859;51.064;4.580;2023-06-26T11:45:24;23.40;93.90
75262;DHT22;63859;51.064;4.580;2023-06-26T11:47:49;23.50;94.20
75262;DHT22;63859;51.064;4.580;2023-06-26T11:50:16;23.40;93.50
75262;DHT22;63859;51.064;4.580;2023-06-26T11:52:43;23.50;94.70
75262;DHT22;63859;51.064;4.580;2023-06-26T11:55:09;23.30;94.60
75262;DHT22;63859;51.064;4.580;2023-06-26T11:57:36;23.40;94.90
75262;DHT22;63859;51.064;4.580;2023-06-26T12:00:14;23.60;95.20
75262;DHT22;63859;51.064;4.580;2023-06-26T12:02:42;24.30;96.30
75262;DHT22;63859;51.064;4.580;2023-06-26T12:05:08;24.80;96.40
75262;DHT22;63859;51.064;4.580;2023-06-26T12:07:34;24.80;95.40
75262;DHT22;63859;51.064;4.580;2023-06-26T12:10:02;24.60;95.00
75262;DHT22;63859;51.064;4.580;2023-06-26T12:12:29;24.10;95.40
75262;DHT22;63859;51.064;4.580;2023-06-26T12:14:57;24.10;95.70
75262;DHT22;63859;51.064;4.580;2023-06-26T12:17:23;24.10;94.60
75262;DHT22;63859;51.064;4.580;2023-06-26T12:19:50;24.20;94.90
75262;DHT22;63859;51.064;4.580;2023-06-26T12:22:17;24.40;95.10
75262;DHT22;63859;51.064;4.580;2023-06-26T12:24:44;24.80;94.80
75262;DHT22;63859;51.064;4.580;2023-06-26T12:27:11;24.70;92.60
75262;DHT22;63859;51.064;4.580;2023-06-26T12:29:39;24.20;93.10
75262;DHT22;63859;51.064;4.580;2023-06-26T12:32:08;24.30;93.50
75262;DHT22;63859;51.064;4.580;2023-06-26T12:34:38;24.30;93.70
75262;DHT22;63859;51.064;4.580;2023-06-26T12:37:11;24.30;93.10
75262;DHT22;63859;51.064;4.580;2023-06-26T12:39:56;24.70;93.50
75262;DHT22;63859;51.064;4.580;2023-06-26T12:42:25;24.80;92.90
75262;DHT22;63859;51.064;4.580;2023-06-26T12:44:52;25.00;93.00
75262;DHT22;63859;51.064;4.580;2023-06-26T12:47:24;25.00;92.00
75262;DHT22;63859;51.064;4.580;2023-06-26T12:49:51;25.00;91.90
75262;DHT22;63859;51.064;4.580;2023-06-26T12:52:17;25.10;90.40
75262;DHT22;63859;51.064;4.580;2023-06-26T12:54:50;24.70;89.30
75262;DHT22;63859;51.064;4.580;2023-06-26T12:57:16;24.50;90.60
75262;DHT22;63859;51.064;4.580;2023-06-26T12:59:42;24.50;89.80
75262;DHT22;63859;51.064;4.580;2023-06-26T13:02:09;24.70;90.40
75262;DHT22;63859;51.064;4.580;2023-06-26T13:04:36;24.70;91.70
75262;DHT22;63859;51.064;4.580;2023-06-26T13:07:05;24.80;92.10
75262;DHT22;63859;51.064;4.580;2023-06-26T13:09:32;25.00;91.80
75262;DHT22;63859;51.064;4.580;2023-06-26T13:11:59;25.20;90.80
75262;DHT22;63859;51.064;4.580;2023-06-26T13:14:24;25.30;90.00
75262;DHT22;63859;51.064;4.580;2023-06-26T13:16:51;24.80;88.70
75262;DHT22;63859;51.064;4.580;2023-06-26T13:19:16;24.70;89.40
75262;DHT22;63859;51.064;4.580;2023-06-26T13:21:42;24.40;86.50
75262;DHT22;63859;51.064;4.580;2023-06-26T13:24:08;24.40;88.60
75262;DHT22;63859;51.064;4.580;2023-06-26T13:26:34;24.50;89.50
75262;DHT22;63859;51.064;4.580;2023-06-26T13:29:00;24.50;90.50
75262;DHT22;63859;51.064;4.580;2023-06-26T13:31:26;24.70;88.00
75262;DHT22;63859;51.064;4.580;2023-06-26T13:33:52;24.80;88.10
75262;DHT22;63859;51.064;4.580;2023-06-26T13:36:18;25.00;88.70
75262;DHT22;63859;51.064;4.580;2023-06-26T13:38:44;25.10;89.40
75262;DHT22;63859;51.064;4.580;2023-06-26T13:41:10;25.20;89.00
75262;DHT22;63859;51.064;4.580;2023-06-26T13:43:36;25.60;89.00
75262;DHT22;63859;51.064;4.580;2023-06-26T13:46:02;25.80;87.60
75262;DHT22;63859;51.064;4.580;2023-06-26T13:48:28;25.70;85.30
75262;DHT22;63859;51.064;4.580;2023-06-26T13:50:55;25.20;84.50
75262;DHT22;63859;51.064;4.580;2023-06-26T13:53:22;25.00;85.70
75262;DHT22;63859;51.064;4.580;2023-06-26T13:55:47;24.80;86.10
75262;DHT22;63859;51.064;4.580;2023-06-26T13:58:13;24.60;86.00
75262;DHT22;63859;51.064;4.580;2023-06-26T14:00:39;24.90;87.00
75262;DHT22;63859;51.064;4.580;2023-06-26T14:03:05;25.10;86.20
75262;DHT22;63859;51.064;4.580;2023-06-26T14:05:36;24.90;85.40
75262;DHT22;63859;51.064;4.580;2023-06-26T14:08:03;25.20;84.70
75262;DHT22;63859;51.064;4.580;2023-06-26T14:10:30;24.80;86.00
75262;DHT22;63859;51.064;4.580;2023-06-26T14:12:56;24.40;85.00
75262;DHT22;63859;51.064;4.580;2023-06-26T14:15:21;24.20;86.70
75262;DHT22;63859;51.064;4.580;2023-06-26T14:17:47;24.20;87.10
75262;DHT22;63859;51.064;4.580;2023-06-26T14:20:13;24.10;86.20
75262;DHT22;63859;51.064;4.580;2023-06-26T14:22:40;24.00;85.90
75262;DHT22;63859;51.064;4.580;2023-06-26T14:25:07;24.10;86.10
75262;DHT22;63859;51.064;4.580;2023-06-26T14:27:32;24.10;86.10
75262;DHT22;63859;51.064;4.580;2023-06-26T14:29:58;24.00;89.40
75262;DHT22;63859;51.064;4.580;2023-06-26T14:32:24;24.00;91.10
75262;DHT22;63859;51.064;4.580;2023-06-26T14:34:49;24.10;91.70
75262;DHT22;63859;51.064;4.580;2023-06-26T14:37:15;24.20;91.80
75262;DHT22;63859;51.064;4.580;2023-06-26T14:39:41;24.30;92.20
75262;DHT22;63859;51.064;4.580;2023-06-26T14:42:07;24.40;92.50
75262;DHT22;63859;51.064;4.580;2023-06-26T14:44:33;24.30;91.80
75262;DHT22;63859;51.064;4.580;2023-06-26T14:46:58;24.20;91.60
75262;DHT22;63859;51.064;4.580;2023-06-26T14:49:24;24.10;91.50
75262;DHT22;63859;51.064;4.580;2023-06-26T14:51:50;24.00;92.10
75262;DHT22;63859;51.064;4.580;2023-06-26T14:54:15;24.00;92.30
75262;DHT22;63859;51.064;4.580;2023-06-26T14:56:41;24.30;92.40
75262;DHT22;63859;51.064;4.580;2023-06-26T14:59:09;24.50;92.40
75262;DHT22;63859;51.064;4.580;2023-06-26T15:01:36;24.70;91.80
75262;DHT22;63859;51.064;4.580;2023-06-26T15:04:01;24.80;92.20
75262;DHT22;63859;51.064;4.580;2023-06-26T15:06:27;24.70;91.80
75262;DHT22;63859;51.064;4.580;2023-06-26T15:08:52;24.50;91.30
75262;DHT22;63859;51.064;4.580;2023-06-26T15:11:18;24.50;91.80
75262;DHT22;63859;51.064;4.580;2023-06-26T15:13:44;24.30;92.00
75262;DHT22;63859;51.064;4.580;2023-06-26T15:16:10;24.20;92.30
75262;DHT22;63859;51.064;4.580;2023-06-26T15:18:35;24.20;92.80
75262;DHT22;63859;51.064;4.580;2023-06-26T15:21:01;24.20;92.60
75262;DHT22;63859;51.064;4.580;2023-06-26T15:23:28;24.20;92.90
75262;DHT22;63859;51.064;4.580;2023-06-26T15:25:54;24.10;93.20
75262;DHT22;63859;51.064;4.580;2023-06-26T15:28:20;24.10;92.70
75262;DHT22;63859;51.064;4.580;2023-06-26T15:30:46;24.00;92.70
75262;DHT22;63859;51.064;4.580;2023-06-26T15:33:12;24.00;92.70
75262;DHT22;63859;51.064;4.580;2023-06-26T15:35:38;23.90;92.40
75262;DHT22;63859;51.064;4.580;2023-06-26T15:38:04;23.90;92.70